Aérodrome :
LOGIN :

S'inscrire | Disclaimer

   EN    FR    IT 

 










Légende :    VFR   VFR Marginal   IFR   IFR Intensif   IFR Très Intensif
Visi : 
Plafond : 
>= 8 km
>= 3000ft
5 à 8 km
1000 à 3000 ft
1500m à 5 km
500 à 1000 ft
800 à 1500m
200 à 500 ft
< 800m
< 200 ft
Symboles :   Orages  Brouillard  Fortes neiges  Fortes précipitations  Vent > 20 kt
SIGMETs :   Divers  Orages  Givrage  Turbulence  Onde Orograph.  Cendres Volcan.







- Altitude de l'aérodrome : 157 ft
- Code IATA : SXF


EDDB - Berlin Schönefeld

DERNIER METAR :
  • 220420Z 14007KT 9999 BKN007 M00/M02 Q1014 BECMG SCT007

METARs EXPIRÉS :
  • 220350Z 15009KT 120V180 9999 BKN008 M00/M02 Q1015 TEMPO BKN010
  • 220320Z 14008KT 100V170 9999 BKN008 M00/M01 Q1015 TEMPO BKN010
  • 220250Z 15008KT 9999 BKN006 M00/M01 Q1015 TEMPO BKN010
  • 220220Z 14007KT 110V180 9999 BKN007 M00/M01 Q1015 TEMPO BKN010
  • 220150Z 15007KT 120V180 9999 BKN006 M00/M01 Q1016 TEMPO BKN010
  • 220120Z 16007KT 9999 BKN007 M00/M01 Q1016 TEMPO BKN010

TAF TAF EDDB
Valide du 22 à 00h jusqu'au 23 à 00h UTC


212300Z 2200/2224 13009KT 6000 BKN010
TEMPO 2200/2206 3000 BR BKN004
PROB30
TEMPO 2202/2206 SCT010
BECMG 2206/2209 SCT010
BECMG 2213/2216 OVC010
TEMPO 2215/2224 2500 -SN BKN005
Pas de NOTAMs connus pour ce terrain.
1 SIGMET publié pour la FIR Bremen (EDWW) :
 
Givrage fort
EDWW SIGMET 1 VALID 220100/220500 EDZH
EDWW BREMEN FIR SEV ICE FCST W OF E00800 3000FT/FL120 MOV E NC=



MET'MAP, la Météo Aéronautique d'un coup d'oeil ! - Copyright ORBIFLY Décembre 2007 - Disclaimer

ORBIFLY MET'MAP TEAM :

Programmation & Développement : Alexandra Zaïnal
Conception & Développement : Baudouin d'Aumeries
Co-Programmation & Développement : Marc-Olivier Méhu
Soutien technique & logistique : Manuel Goepfert

Contact : metmap@orbifly.com




SOURCES & CREDITS :

   NOAA